Time;durP1;ratioP1;P1;durP2;ratioP2;P2;SDS_P1;SDS_P2;PMS_P1;PMS_P2;Temp;Humidity;BMP_temperature;BMP_pressure;BME280_temperature;BME280_humidity;BME280_pressure;Samples;Min_cycle;Max_cycle;Signal;HPM_P1;HPM_P2
2023/10/07 00:00:59;;;;;;;;;;;;;;;;;;4964502;28;19926;-84
2023/10/07 00:03:25;;;;;;;;;;;;;;;;;;4965566;28;19928;-80
2023/10/07 00:06:00;;;;;;;;;;;;;;;;;;4965028;28;20012;-84
2023/10/07 00:08:27;;;;;;;;;;;;;;;;;;4964637;28;19926;-85
2023/10/07 00:10:58;;;;;;;;;;;;;;;;;;4981301;28;20350;-83
2023/10/07 00:13:26;;;;;;;;;;;;;;;;;;4961253;28;19922;-85
2023/10/07 00:15:53;;;;;;;;;;;;;;;;;;4966522;28;19933;-84
2023/10/07 00:18:19;;;;;;;;;;;;;;;;;;4949660;28;19925;-82
2023/10/07 00:20:48;;;;;;;;;;;;;;;;;;4966196;28;20270;-83
2023/10/07 00:23:23;;;;;;;;;;;;;;;;;;4963036;28;19925;-77
2023/10/07 00:25:52;;;;;;;;;;;;;;;;;;4963646;28;19925;-84
2023/10/07 00:28:24;;;;;;;;;;;;;;;;;;4964864;28;19968;-79
2023/10/07 00:30:50;;;;;;;;;;;;;;;;;;4962514;28;19965;-78
2023/10/07 00:33:20;;;;;;;;;;;;;;;;;;4947760;28;19968;-83
2023/10/07 00:35:49;;;;;;;;;;;;;;;;;;4980918;28;19980;-82
2023/10/07 00:38:15;;;;;;;;;;;;;;;;;;4982691;28;19923;-84
2023/10/07 00:40:42;;;;;;;;;;;;;;;;;;4961741;28;19929;-83
2023/10/07 00:43:11;;;;;;;;;;;;;;;;;;4963750;28;20029;-84
2023/10/07 00:45:37;;;;;;;;;;;;;;;;;;4965051;28;20659;-84
2023/10/07 00:48:10;;;;;;;;;;;;;;;;;;4963479;28;20020;-85
2023/10/07 00:50:36;;;;;;;;;;;;;;;;;;4964362;28;19952;-85
2023/10/07 00:53:05;;;;;;;;;;;;;;;;;;4962884;28;19926;-86
2023/10/07 00:55:36;;;;;;;;;;;;;;;;;;4963492;28;20012;-83
2023/10/07 00:58:26;;;;;;;;;;;;;;;;;;4952350;28;20020;-83
2023/10/07 01:00:55;;;;;;;;;;;;;;;;;;4963855;28;20169;-82
2023/10/07 01:08:58;;;;;;;;;;;;;;;;;;4941183;28;20373;-79
2023/10/07 01:11:29;;;;;;;;;;;;;;;;;;4956004;28;19936;-84
2023/10/07 01:14:00;;;;;;;;;;;;;;;;;;4961226;28;19925;-79
2023/10/07 01:16:40;;;;;;;;;;;;;;;;;;4982074;28;20001;-85
2023/10/07 01:21:40;;;;;;;;;;;;;;;;;;4963894;28;19980;-78
2023/10/07 01:24:06;;;;;;;;;;;;;;;;;;4962385;28;20001;-79
2023/10/07 01:26:33;;;;;;;;;;;;;;;;;;4947810;28;20471;-78
2023/10/07 01:29:15;;;;;;;;;;;;;;;;;;4962132;28;20013;-83
2023/10/07 01:31:59;;;;;;;;;;;;;;;;;;4961920;28;19926;-80
2023/10/07 01:34:24;;;;;;;;;;;;;;;;;;4957852;28;19926;-80
2023/10/07 01:36:51;;;;;;;;;;;;;;;;;;4960142;28;19926;-83
2023/10/07 01:39:17;;;;;;;;;;;;;;;;;;4947747;28;19921;-81
2023/10/07 01:41:45;;;;;;;;;;;;;;;;;;4946469;28;19961;-82
2023/10/07 01:44:11;;;;;;;;;;;;;;;;;;4966597;28;19922;-79
2023/10/07 01:46:40;;;;;;;;;;;;;;;;;;4965612;28;19933;-84
2023/10/07 01:49:12;;;;;;;;;;;;;;;;;;4937735;28;19922;-84
2023/10/07 01:51:38;;;;;;;;;;;;;;;;;;4966039;28;19933;-82
2023/10/07 01:54:04;;;;;;;;;;;;;;;;;;4946384;28;19926;-80
2023/10/07 01:56:30;;;;;;;;;;;;;;;;;;4948698;28;19933;-76
2023/10/07 01:59:04;;;;;;;;;;;;;;;;;;4948365;28;19933;-82
2023/10/07 02:01:30;;;;;;;;;;;;;;;;;;4948155;28;19926;-81
2023/10/07 02:03:59;;;;;;;;;;;;;;;;;;4949039;28;20384;-80
2023/10/07 02:06:26;;;;;;;;;;;;;;;;;;4947733;28;19926;-81
2023/10/07 02:08:53;;;;;;;;;;;;;;;;;;4966346;28;19933;-78
2023/10/07 02:11:28;;;;;;;;;;;;;;;;;;4945912;28;19937;-81
2023/10/07 02:13:55;;;;;;;;;;;;;;;;;;4965104;28;19929;-78
2023/10/07 02:16:25;;;;;;;;;;;;;;;;;;4926938;28;19927;-84
2023/10/07 02:18:51;;;;;;;;;;;;;;;;;;4946914;28;20266;-79
2023/10/07 02:21:20;;;;;;;;;;;;;;;;;;4948322;28;20366;-76
2023/10/07 02:23:46;;;;;;;;;;;;;;;;;;4947750;28;20475;-80
2023/10/07 02:26:19;;;;;;;;;;;;;;;;;;4945033;28;20413;-84
2023/10/07 02:28:45;;;;;;;;;;;;;;;;;;4944614;28;20012;-74
2023/10/07 02:31:18;;;;;;;;;;;;;;;;;;4947040;28;20393;-80
2023/10/07 02:33:45;;;;;;;;;;;;;;;;;;4947076;28;19926;-77
2023/10/07 02:36:13;;;;;;;;;;;;;;;;;;4968010;28;19932;-82
2023/10/07 02:38:42;;;;;;;;;;;;;;;;;;4967839;28;19926;-76
2023/10/07 02:41:16;;;;;;;;;;;;;;;;;;4949797;28;19930;-80
2023/10/07 02:43:43;;;;;;;;;;;;;;;;;;4985851;28;19932;-76
2023/10/07 02:46:22;;;;;;;;;;;;;;;;;;4965848;28;19976;-84
2023/10/07 02:48:48;;;;;;;;;;;;;;;;;;4967173;28;19925;-81
2023/10/07 02:51:13;;;;;;;;;;;;;;;;;;4967016;28;19921;-84
2023/10/07 02:53:39;;;;;;;;;;;;;;;;;;4967199;28;20343;-83
2023/10/07 02:56:17;;;;;;;;;;;;;;;;;;4967913;28;20005;-80
2023/10/07 02:58:51;;;;;;;;;;;;;;;;;;4966065;28;19975;-79
2023/10/07 03:01:17;;;;;;;;;;;;;;;;;;4983141;28;19929;-79
2023/10/07 03:03:49;;;;;;;;;;;;;;;;;;4950781;28;20596;-81
2023/10/07 03:06:18;;;;;;;;;;;;;;;;;;4966240;28;19926;-84
2023/10/07 03:08:57;;;;;;;;;;;;;;;;;;4963651;28;19933;-85
2023/10/07 03:11:24;;;;;;;;;;;;;;;;;;4983110;28;19988;-84
2023/10/07 03:13:50;;;;;;;;;;;;;;;;;;4963696;28;19925;-80
2023/10/07 03:16:28;;;;;;;;;;;;;;;;;;4958166;28;20373;-83
2023/10/07 03:22:09;;;;;;;;;;;;;;;;;;4964894;28;19933;-85
2023/10/07 03:24:28;;;;;;;;;;;;;;;;;;4961139;28;19930;-80
2023/10/07 03:27:05;;;;;;;;;;;;;;;;;;4964241;28;20350;-84
2023/10/07 03:29:31;;;;;;;;;;;;;;;;;;4949037;28;19969;-76
2023/10/07 03:31:59;;;;;;;;;;;;;;;;;;4971789;28;19984;-85
2023/10/07 03:34:25;;;;;;;;;;;;;;;;;;4959612;28;20023;-85
2023/10/07 03:39:56;;;;;;;;;;;;;;;;;;4945340;28;19932;-79
2023/10/07 03:42:23;;;;;;;;;;;;;;;;;;4941612;28;19923;-85
2023/10/07 03:44:49;;;;;;;;;;;;;;;;;;4964729;28;20393;-83
2023/10/07 03:47:15;;;;;;;;;;;;;;;;;;4944637;28;19925;-82
2023/10/07 03:49:41;;;;;;;;;;;;;;;;;;4943573;28;20533;-78
2023/10/07 03:52:08;;;;;;;;;;;;;;;;;;4935710;28;19945;-85
2023/10/07 03:54:34;;;;;;;;;;;;;;;;;;4945370;28;20020;-78
2023/10/07 03:57:00;;;;;;;;;;;;;;;;;;4963022;28;19988;-81
2023/10/07 03:59:27;;;;;;;;;;;;;;;;;;4943137;28;19926;-84
2023/10/07 04:01:53;;;;;;;;;;;;;;;;;;4946139;28;19925;-77
2023/10/07 04:04:22;;;;;;;;;;;;;;;;;;4959204;28;19972;-81
2023/10/07 04:06:48;;;;;;;;;;;;;;;;;;4962848;28;20124;-84
2023/10/07 04:09:14;;;;;;;;;;;;;;;;;;4945836;28;20301;-75
2023/10/07 04:11:48;;;;;;;;;;;;;;;;;;4962897;28;20393;-81
2023/10/07 04:14:27;;;;;;;;;;;;;;;;;;4945268;28;19926;-79
2023/10/07 04:16:54;;;;;;;;;;;;;;;;;;4925641;29;20479;-84
2023/10/07 04:21:54;;;;;;;;;;;;;;;;;;4943926;28;19976;-78
2023/10/07 04:24:20;;;;;;;;;;;;;;;;;;4941502;28;20580;-78
2023/10/07 04:27:02;;;;;;;;;;;;;;;;;;4944874;28;19955;-86
2023/10/07 04:29:27;;;;;;;;;;;;;;;;;;4938189;28;19926;-82
2023/10/07 04:31:54;;;;;;;;;;;;;;;;;;4945804;28;19961;-80
2023/10/07 04:34:20;;;;;;;;;;;;;;;;;;4967004;28;19933;-82
2023/10/07 04:39:37;;;;;;;;;;;;;;;;;;4964445;28;19972;-82
2023/10/07 04:42:05;;;;;;;;;;;;;;;;;;4977798;28;19922;-79
2023/10/07 04:50:05;;;;;;;;;;;;;;;;;;4966257;28;19972;-84
2023/10/07 04:52:30;;;;;;;;;;;;;;;;;;4962716;28;19957;-81
2023/10/07 04:54:58;;;;;;;;;;;;;;;;;;4982028;28;19980;-85
2023/10/07 05:00:09;;;;;;;;;;;;;;;;;;4944109;28;19984;-82
2023/10/07 05:05:43;;;;;;;;;;;;;;;;;;;;;
2023/10/07 05:11:47;;;;;;;;;;;;;;;;;;4945749;28;20015;-80
2023/10/07 05:17:36;;;;;;;;;;;;;;;;;;4899400;29;19922;-86
2023/10/07 05:20:06;;;;;;;;;;;;;;;;;;4906275;29;20047;-83
2023/10/07 05:22:50;;;;;;;;;;;;;;;;;;4903107;29;19954;-87
2023/10/07 05:31:38;;;;;;;;;;;;;;;;;;4917041;29;19978;-85
2023/10/07 05:34:14;;;;;;;;;;;;;;;;;;4950151;28;20314;-84
2023/10/07 05:37:11;;;;;;;;;;;;;;;;;;4933480;28;19926;-81
2023/10/07 05:39:42;;;;;;;;;;;;;;;;;;4923018;29;20134;-85
2023/10/07 05:42:26;;;;;;;;;;;;;;;;;;4872308;29;19927;-80
2023/10/07 05:45:04;;;;;;;;;;;;;;;;;;4886940;29;19943;-83
2023/10/07 05:47:32;;;;;;;;;;;;;;;;;;4864868;29;19955;-84
2023/10/07 05:55:57;;;;;;;;;;;;;;;;;;4863503;29;19923;-86
2023/10/07 05:58:39;;;;;;;;;;;;;;;;;;4869863;29;20206;-85
2023/10/07 06:04:11;;;;;;;;;;;;;;;;;;4867636;29;20619;-80
2023/10/07 06:06:38;;;;;;;;;;;;;;;;;;4864848;29;20448;-83
2023/10/07 06:09:13;;;;;;;;;;;;;;;;;;4863548;29;20352;-86
2023/10/07 06:20:46;;;;;;;;;;;;;;;;;;4878735;29;20066;-85
2023/10/07 06:23:15;;;;;;;;;;;;;;;;;;4914160;29;19937;-83
2023/10/07 06:25:43;;;;;;;;;;;;;;;;;;4934488;28;19922;-79
2023/10/07 06:28:10;;;;;;;;;;;;;;;;;;4937444;28;20436;-84
2023/10/07 06:30:38;;;;;;;;;;;;;;;;;;4938871;28;19926;-78
2023/10/07 06:33:13;;;;;;;;;;;;;;;;;;4937319;28;19941;-82
2023/10/07 06:35:39;;;;;;;;;;;;;;;;;;4967169;28;20020;-87
2023/10/07 06:38:05;;;;;;;;;;;;;;;;;;4971403;28;21025;-80
2023/10/07 06:40:32;;;;;;;;;;;;;;;;;;4958221;28;19930;-85
2023/10/07 06:43:01;;;;;;;;;;;;;;;;;;4974755;28;19929;-81
2023/10/07 06:45:38;;;;;;;;;;;;;;;;;;4957993;28;20968;-82
2023/10/07 06:48:06;;;;;;;;;;;;;;;;;;4957810;28;20352;-84
2023/10/07 06:50:32;;;;;;;;;;;;;;;;;;4956744;28;19925;-79
2023/10/07 06:52:58;;;;;;;;;;;;;;;;;;4958171;28;20334;-77
2023/10/07 06:55:24;;;;;;;;;;;;;;;;;;4957251;28;19925;-80
2023/10/07 06:57:56;;;;;;;;;;;;;;;;;;4975047;28;19921;-83
2023/10/07 07:00:27;;;;;;;;;;;;;;;;;;4958094;28;19957;-80
2023/10/07 07:03:09;;;;;;;;;;;;;;;;;;4955647;28;19933;-78
2023/10/07 07:05:35;;;;;;;;;;;;;;;;;;4957513;28;20289;-79
2023/10/07 07:08:03;;;;;;;;;;;;;;;;;;4957420;28;19925;-84
2023/10/07 07:10:31;;;;;;;;;;;;;;;;;;4958454;28;20393;-83
2023/10/07 07:13:04;;;;;;;;;;;;;;;;;;4959139;28;19925;-84
2023/10/07 07:15:36;;;;;;;;;;;;;;;;;;4957829;28;20226;-80
2023/10/07 07:18:14;;;;;;;;;;;;;;;;;;4956682;28;20008;-81
2023/10/07 07:20:54;;;;;;;;;;;;;;;;;;4958489;28;19925;-83
2023/10/07 07:23:21;;;;;;;;;;;;;;;;;;4954959;28;20029;-81
2023/10/07 07:28:30;;;;;;;;;;;;;;;;;;4967816;28;19940;-77
2023/10/07 07:30:59;;;;;;;;;;;;;;;;;;4972503;28;19933;-81
2023/10/07 07:33:29;;;;;;;;;;;;;;;;;;4953196;28;19937;-83
2023/10/07 07:35:56;;;;;;;;;;;;;;;;;;4972326;28;19926;-79
2023/10/07 07:40:52;;;;;;;;;;;;;;;;;;4951669;28;19929;-78
2023/10/07 07:43:25;;;;;;;;;;;;;;;;;;4946792;28;19933;-79
2023/10/07 07:46:08;;;;;;;;;;;;;;;;;;4971620;28;19930;-80
2023/10/07 07:48:36;;;;;;;;;;;;;;;;;;4933985;28;19965;-81
2023/10/07 07:51:03;;;;;;;;;;;;;;;;;;4952843;28;20036;-84
2023/10/07 07:53:30;;;;;;;;;;;;;;;;;;4952651;28;20032;-85
2023/10/07 07:55:58;;;;;;;;;;;;;;;;;;4951834;28;20116;-83
2023/10/07 07:58:24;;;;;;;;;;;;;;;;;;4972428;28;20387;-78
2023/10/07 08:00:58;;;;;;;;;;;;;;;;;;4951739;28;20012;-84
2023/10/07 08:03:24;;;;;;;;;;;;;;;;;;4952931;28;19976;-86
2023/10/07 08:05:50;;;;;;;;;;;;;;;;;;4953154;28;20431;-80
2023/10/07 08:08:24;;;;;;;;;;;;;;;;;;4969028;28;19933;-85
2023/10/07 08:10:50;;;;;;;;;;;;;;;;;;4950970;28;19941;-84
2023/10/07 08:13:23;;;;;;;;;;;;;;;;;;4939926;28;20019;-82
2023/10/07 08:15:49;;;;;;;;;;;;;;;;;;4956458;28;20019;-84
2023/10/07 08:18:15;;;;;;;;;;;;;;;;;;4953366;28;21049;-83
2023/10/07 08:20:44;;;;;;;;;;;;;;;;;;4954002;28;20452;-80
2023/10/07 08:23:15;;;;;;;;;;;;;;;;;;4956522;28;20333;-81
2023/10/07 08:25:47;;;;;;;;;;;;;;;;;;4972389;28;19925;-83
2023/10/07 08:28:19;;;;;;;;;;;;;;;;;;4977498;28;19930;-91
2023/10/07 08:30:46;;;;;;;;;;;;;;;;;;4956115;28;19925;-86
2023/10/07 08:33:12;;;;;;;;;;;;;;;;;;4938492;28;19985;-88
2023/10/07 08:35:43;;;;;;;;;;;;;;;;;;4972691;28;20297;-85
2023/10/07 08:38:20;;;;;;;;;;;;;;;;;;4953687;28;19925;-80
2023/10/07 08:40:50;;;;;;;;;;;;;;;;;;4955769;28;19933;-84
2023/10/07 08:43:19;;;;;;;;;;;;;;;;;;4953390;28;19930;-90
2023/10/07 08:45:45;;;;;;;;;;;;;;;;;;4957622;28;20625;-89
2023/10/07 08:48:17;;;;;;;;;;;;;;;;;;4974110;28;19925;-83
2023/10/07 08:50:55;;;;;;;;;;;;;;;;;;4972904;28;19921;-84
2023/10/07 08:53:23;;;;;;;;;;;;;;;;;;4973379;28;20387;-86
2023/10/07 08:55:51;;;;;;;;;;;;;;;;;;4953389;28;20523;-83
2023/10/07 08:58:17;;;;;;;;;;;;;;;;;;4974889;28;19929;-90
2023/10/07 09:00:45;;;;;;;;;;;;;;;;;;4975397;28;19925;-87
2023/10/07 09:03:14;;;;;;;;;;;;;;;;;;4974407;28;19925;-88
2023/10/07 09:05:40;;;;;;;;;;;;;;;;;;4957524;28;20279;-89
2023/10/07 09:08:11;;;;;;;;;;;;;;;;;;4972318;28;20012;-86
2023/10/07 09:10:37;;;;;;;;;;;;;;;;;;4954946;28;19953;-84
2023/10/07 09:13:05;;;;;;;;;;;;;;;;;;4956571;28;19929;-89
2023/10/07 09:15:34;;;;;;;;;;;;;;;;;;4973619;28;19957;-87
2023/10/07 09:18:03;;;;;;;;;;;;;;;;;;4953844;28;19933;-85
2023/10/07 09:20:29;;;;;;;;;;;;;;;;;;4973906;28;19926;-85
2023/10/07 09:22:55;;;;;;;;;;;;;;;;;;4958563;28;19922;-84
2023/10/07 09:25:29;;;;;;;;;;;;;;;;;;4955567;28;21625;-87
2023/10/07 09:27:55;;;;;;;;;;;;;;;;;;4952406;28;20432;-90
2023/10/07 09:33:17;;;;;;;;;;;;;;;;;;4972073;28;20071;-84
2023/10/07 09:35:43;;;;;;;;;;;;;;;;;;4944095;28;19940;-90
2023/10/07 09:38:12;;;;;;;;;;;;;;;;;;4957888;28;19926;-89
2023/10/07 09:41:11;;;;;;;;;;;;;;;;;;4936694;28;20708;-95
2023/10/07 09:43:37;;;;;;;;;;;;;;;;;;4934211;28;19957;-90
2023/10/07 09:46:03;;;;;;;;;;;;;;;;;;4938928;28;20271;-87
2023/10/07 09:48:33;;;;;;;;;;;;;;;;;;4941017;28;20009;-91
2023/10/07 09:50:59;;;;;;;;;;;;;;;;;;4948025;28;19932;-91
2023/10/07 09:53:27;;;;;;;;;;;;;;;;;;4947972;28;19922;-88
2023/10/07 09:55:56;;;;;;;;;;;;;;;;;;4947826;28;19922;-90
2023/10/07 09:58:26;;;;;;;;;;;;;;;;;;4950878;28;19926;-91
2023/10/07 10:01:04;;;;;;;;;;;;;;;;;;4963989;28;19922;-89
2023/10/07 10:03:30;;;;;;;;;;;;;;;;;;4961491;28;20349;-87
2023/10/07 10:05:56;;;;;;;;;;;;;;;;;;4960911;28;19925;-89
2023/10/07 10:08:27;;;;;;;;;;;;;;;;;;4949686;28;19926;-88
2023/10/07 10:10:58;;;;;;;;;;;;;;;;;;4946885;28;19930;-84
2023/10/07 10:14:16;;;;;;;;;;;;;;;;;;4961902;28;19922;-82
2023/10/07 10:16:16;;;;;;;;;;;;;;;;;;4949700;28;19930;-75
2023/10/07 10:18:43;;;;;;;;;;;;;;;;;;4958471;28;19926;-81
2023/10/07 10:21:09;;;;;;;;;;;;;;;;;;4939348;28;19929;-79
2023/10/07 10:23:37;;;;;;;;;;;;;;;;;;4955903;28;19933;-84
2023/10/07 10:26:14;;;;;;;;;;;;;;;;;;4957763;28;19926;-84
2023/10/07 10:28:41;;;;;;;;;;;;;;;;;;4928269;28;19933;-80
2023/10/07 10:31:07;;;;;;;;;;;;;;;;;;4938051;28;19926;-83
2023/10/07 10:33:35;;;;;;;;;;;;;;;;;;4952344;28;20392;-84
2023/10/07 10:36:01;;;;;;;;;;;;;;;;;;4933248;28;19926;-83
2023/10/07 10:38:27;;;;;;;;;;;;;;;;;;4917887;28;19925;-80
2023/10/07 10:40:54;;;;;;;;;;;;;;;;;;4929839;28;19980;-77
2023/10/07 10:46:44;;;;;;;;;;;;;;;;;;4890298;29;19935;-82
2023/10/07 10:52:22;;;;;;;;;;;;;;;;;;4916786;28;20341;-83
2023/10/07 10:55:11;;;;;;;;;;;;;;;;;;4941071;28;20361;-83
2023/10/07 11:00:54;;;;;;;;;;;;;;;;;;4863957;29;19931;-82
2023/10/07 11:06:29;;;;;;;;;;;;;;;;;;4851379;29;20015;-82
2023/10/07 11:09:03;;;;;;;;;;;;;;;;;;4845850;29;19969;-80
2023/10/07 11:11:29;;;;;;;;;;;;;;;;;;4873744;29;20041;-79
2023/10/07 11:17:04;;;;;;;;;;;;;;;;;;4907815;29;19939;-85
2023/10/07 11:19:40;;;;;;;;;;;;;;;;;;;;;
2023/10/07 11:25:30;;;;;;;;;;;;;;;;;;4894748;29;20484;-81
2023/10/07 11:28:17;;;;;;;;;;;;;;;;;;4908318;29;19934;-83
2023/10/07 11:33:29;;;;;;;;;;;;;;;;;;4895547;29;19930;-83
2023/10/07 11:36:06;;;;;;;;;;;;;;;;;;4926356;28;20109;-81
2023/10/07 11:38:34;;;;;;;;;;;;;;;;;;4950047;28;20185;-81
2023/10/07 11:41:00;;;;;;;;;;;;;;;;;;4934566;28;20004;-81
2023/10/07 11:43:27;;;;;;;;;;;;;;;;;;4950136;28;19926;-83
2023/10/07 11:45:59;;;;;;;;;;;;;;;;;;4955815;28;19926;-83
2023/10/07 11:48:26;;;;;;;;;;;;;;;;;;4930744;28;20025;-80
2023/10/07 11:50:54;;;;;;;;;;;;;;;;;;4959198;28;20009;-83
2023/10/07 11:54:18;;;;;;;;;;;;;;;;;;4950946;28;20502;-83
2023/10/07 11:56:43;;;;;;;;;;;;;;;;;;4947509;28;19925;-79
2023/10/07 12:08:14;;;;;;;;;;;;;;;;;;4912950;28;20801;-82
2023/10/07 12:11:08;;;;;;;;;;;;;;;;;;4954542;28;19952;-82
2023/10/07 12:29:10;;;;;;;;;;;;;;;;;;4871873;29;20525;-78
2023/10/07 12:32:12;;;;;;;;;;;;;;;;;;4804722;29;19939;-82
2023/10/07 12:34:40;;;;;;;;;;;;;;;;;;4776563;29;20744;-79
2023/10/07 12:37:07;;;;;;;;;;;;;;;;;;4843768;29;19926;-81
2023/10/07 12:39:39;;;;;;;;;;;;;;;;;;4937044;29;20065;-79
2023/10/07 12:42:05;;;;;;;;;;;;;;;;;;4934527;29;19937;-81
2023/10/07 12:44:30;;;;;;;;;;;;;;;;;;4938593;29;19930;-79
2023/10/07 12:46:56;;;;;;;;;;;;;;;;;;4934461;29;20358;-78
2023/10/07 12:49:23;;;;;;;;;;;;;;;;;;4936704;29;19927;-81
2023/10/07 12:51:49;;;;;;;;;;;;;;;;;;4937611;28;19934;-79
2023/10/07 12:54:17;;;;;;;;;;;;;;;;;;4951434;28;19969;-80
2023/10/07 12:56:43;;;;;;;;;;;;;;;;;;4956657;28;19968;-80
2023/10/07 12:59:18;;;;;;;;;;;;;;;;;;4958013;28;20103;-77
2023/10/07 13:01:44;;;;;;;;;;;;;;;;;;4951975;28;19933;-78
2023/10/07 13:04:10;;;;;;;;;;;;;;;;;;4958385;28;19922;-79
2023/10/07 13:06:42;;;;;;;;;;;;;;;;;;4956136;28;20432;-80
2023/10/07 13:09:15;;;;;;;;;;;;;;;;;;4958110;28;20106;-82
2023/10/07 13:11:42;;;;;;;;;;;;;;;;;;4953569;28;20275;-78
2023/10/07 13:14:08;;;;;;;;;;;;;;;;;;4940425;28;20444;-82
2023/10/07 13:16:37;;;;;;;;;;;;;;;;;;4940831;28;20032;-82
2023/10/07 13:19:03;;;;;;;;;;;;;;;;;;4956017;28;20508;-80
2023/10/07 13:21:29;;;;;;;;;;;;;;;;;;4938168;28;20022;-80
2023/10/07 13:23:56;;;;;;;;;;;;;;;;;;4959000;28;20008;-83
2023/10/07 13:26:23;;;;;;;;;;;;;;;;;;4955984;28;19929;-83
2023/10/07 13:28:52;;;;;;;;;;;;;;;;;;4943032;28;19922;-81
2023/10/07 13:31:19;;;;;;;;;;;;;;;;;;4951547;28;19930;-82
2023/10/07 13:33:46;;;;;;;;;;;;;;;;;;4943811;28;19922;-82
2023/10/07 13:36:16;;;;;;;;;;;;;;;;;;4963806;28;19926;-80
2023/10/07 13:38:42;;;;;;;;;;;;;;;;;;4962389;28;19930;-79
2023/10/07 13:41:08;;;;;;;;;;;;;;;;;;4963655;28;20332;-82
2023/10/07 13:46:33;;;;;;;;;;;;;;;;;;4928042;28;19932;-77
2023/10/07 13:49:17;;;;;;;;;;;;;;;;;;4964548;28;19952;-76
2023/10/07 13:51:43;;;;;;;;;;;;;;;;;;4976502;28;20313;-77
2023/10/07 13:54:22;;;;;;;;;;;;;;;;;;4979769;28;19980;-81
2023/10/07 13:56:53;;;;;;;;;;;;;;;;;;4958044;28;19933;-80
2023/10/07 13:59:19;;;;;;;;;;;;;;;;;;4962012;28;19933;-77
2023/10/07 14:01:50;;;;;;;;;;;;;;;;;;4975464;28;19917;-82
2023/10/07 14:04:18;;;;;;;;;;;;;;;;;;4956953;28;19926;-80
2023/10/07 14:06:44;;;;;;;;;;;;;;;;;;4953506;28;19930;-80
2023/10/07 14:09:16;;;;;;;;;;;;;;;;;;4958495;28;20534;-80
2023/10/07 14:11:45;;;;;;;;;;;;;;;;;;4961094;28;19925;-80
2023/10/07 14:14:11;;;;;;;;;;;;;;;;;;4958510;28;19951;-79
2023/10/07 14:16:36;;;;;;;;;;;;;;;;;;4957449;28;19926;-81
2023/10/07 14:19:05;;;;;;;;;;;;;;;;;;4955417;28;19930;-81
2023/10/07 14:21:31;;;;;;;;;;;;;;;;;;4958146;28;19929;-80
2023/10/07 14:24:03;;;;;;;;;;;;;;;;;;4974997;28;19932;-83
2023/10/07 14:26:32;;;;;;;;;;;;;;;;;;4953321;28;19987;-80
2023/10/07 14:29:01;;;;;;;;;;;;;;;;;;4954406;28;19957;-77
2023/10/07 14:31:27;;;;;;;;;;;;;;;;;;4952246;28;19930;-82
2023/10/07 14:33:54;;;;;;;;;;;;;;;;;;4960595;28;19980;-81
2023/10/07 14:36:21;;;;;;;;;;;;;;;;;;4941906;28;19941;-78
2023/10/07 14:38:48;;;;;;;;;;;;;;;;;;4977521;28;19933;-80
2023/10/07 14:41:14;;;;;;;;;;;;;;;;;;4974977;28;20456;-79
2023/10/07 14:43:40;;;;;;;;;;;;;;;;;;4958509;28;19933;-79
2023/10/07 14:46:10;;;;;;;;;;;;;;;;;;4957594;28;19996;-78
2023/10/07 14:48:37;;;;;;;;;;;;;;;;;;4963963;28;19925;-81
2023/10/07 14:51:04;;;;;;;;;;;;;;;;;;4952766;28;20370;-80
2023/10/07 14:53:33;;;;;;;;;;;;;;;;;;4965389;28;20393;-82
2023/10/07 14:56:15;;;;;;;;;;;;;;;;;;4920150;29;19973;-82
2023/10/07 14:58:41;;;;;;;;;;;;;;;;;;4921531;29;19969;-79
2023/10/07 15:01:31;;;;;;;;;;;;;;;;;;4936667;28;20077;-82
2023/10/07 15:04:02;;;;;;;;;;;;;;;;;;4937456;28;19927;-82
2023/10/07 15:06:51;;;;;;;;;;;;;;;;;;4952179;28;19926;-83
2023/10/07 15:12:09;;;;;;;;;;;;;;;;;;4913242;29;19922;-81
2023/10/07 15:14:40;;;;;;;;;;;;;;;;;;4947208;28;20339;-82
2023/10/07 15:20:05;;;;;;;;;;;;;;;;;;4930239;28;19933;-83
2023/10/07 15:22:34;;;;;;;;;;;;;;;;;;4932544;29;19930;-83
2023/10/07 15:25:08;;;;;;;;;;;;;;;;;;4915742;28;20183;-82
2023/10/07 15:27:34;;;;;;;;;;;;;;;;;;4948982;28;20008;-82
2023/10/07 15:30:09;;;;;;;;;;;;;;;;;;4953993;28;19983;-82
2023/10/07 15:32:53;;;;;;;;;;;;;;;;;;4952713;28;19922;-81
2023/10/07 15:35:22;;;;;;;;;;;;;;;;;;4948244;28;19977;-82
2023/10/07 15:37:48;;;;;;;;;;;;;;;;;;4931581;28;20350;-82
2023/10/07 15:40:14;;;;;;;;;;;;;;;;;;4958701;28;19977;-78
2023/10/07 15:52:09;;;;;;;;;;;;;;;;;;4872201;29;20110;-83
2023/10/07 15:54:35;;;;;;;;;;;;;;;;;;4937274;28;19922;-85
2023/10/07 15:57:01;;;;;;;;;;;;;;;;;;4958071;28;20368;-80
2023/10/07 15:59:28;;;;;;;;;;;;;;;;;;4956470;28;19926;-84
2023/10/07 16:01:53;;;;;;;;;;;;;;;;;;4938601;28;19985;-80
2023/10/07 16:04:20;;;;;;;;;;;;;;;;;;4959279;28;20041;-83
2023/10/07 16:06:48;;;;;;;;;;;;;;;;;;4941811;28;20224;-84
2023/10/07 16:09:14;;;;;;;;;;;;;;;;;;4955366;28;19926;-82
2023/10/07 16:11:40;;;;;;;;;;;;;;;;;;4944393;28;19926;-84
2023/10/07 16:14:08;;;;;;;;;;;;;;;;;;4926486;28;20004;-83
2023/10/07 16:16:34;;;;;;;;;;;;;;;;;;4959134;28;20012;-84
2023/10/07 16:18:59;;;;;;;;;;;;;;;;;;4937328;28;20371;-79
2023/10/07 16:21:26;;;;;;;;;;;;;;;;;;4940909;28;20045;-81
2023/10/07 16:23:52;;;;;;;;;;;;;;;;;;4958964;28;19980;-82
2023/10/07 16:26:19;;;;;;;;;;;;;;;;;;4926865;28;20045;-82
2023/10/07 16:28:45;;;;;;;;;;;;;;;;;;4926527;28;20366;-82
2023/10/07 16:31:11;;;;;;;;;;;;;;;;;;4921584;28;19977;-84
2023/10/07 16:33:37;;;;;;;;;;;;;;;;;;4942032;28;20317;-83
2023/10/07 16:36:06;;;;;;;;;;;;;;;;;;4970267;28;19926;-80
2023/10/07 16:38:33;;;;;;;;;;;;;;;;;;4962880;28;19933;-82
2023/10/07 16:41:01;;;;;;;;;;;;;;;;;;4952740;28;19926;-80
2023/10/07 16:43:27;;;;;;;;;;;;;;;;;;4981269;28;19925;-85
2023/10/07 16:45:53;;;;;;;;;;;;;;;;;;4958143;28;19926;-83
2023/10/07 16:48:19;;;;;;;;;;;;;;;;;;4975142;28;19921;-80
2023/10/07 16:50:45;;;;;;;;;;;;;;;;;;4962178;28;19929;-84
2023/10/07 16:53:11;;;;;;;;;;;;;;;;;;4957801;28;19930;-83
2023/10/07 16:55:36;;;;;;;;;;;;;;;;;;4962331;28;19929;-82
2023/10/07 16:58:03;;;;;;;;;;;;;;;;;;4958419;28;19973;-81
2023/10/07 17:00:29;;;;;;;;;;;;;;;;;;4955748;28;19926;-84
2023/10/07 17:02:55;;;;;;;;;;;;;;;;;;4954413;28;20317;-85
2023/10/07 17:05:20;;;;;;;;;;;;;;;;;;4974191;28;20680;-83
2023/10/07 17:07:46;;;;;;;;;;;;;;;;;;4959639;28;19937;-83
2023/10/07 17:10:13;;;;;;;;;;;;;;;;;;4972832;28;19933;-78
2023/10/07 17:12:39;;;;;;;;;;;;;;;;;;4969056;28;19929;-81
2023/10/07 17:15:06;;;;;;;;;;;;;;;;;;4956753;28;20372;-84
2023/10/07 17:17:32;;;;;;;;;;;;;;;;;;4974684;28;20305;-80
2023/10/07 17:19:58;;;;;;;;;;;;;;;;;;4955594;28;19926;-78
2023/10/07 17:22:24;;;;;;;;;;;;;;;;;;4973944;28;19929;-82
2023/10/07 17:24:51;;;;;;;;;;;;;;;;;;4954091;28;19933;-81
2023/10/07 17:27:17;;;;;;;;;;;;;;;;;;4974974;28;19929;-82
2023/10/07 17:29:43;;;;;;;;;;;;;;;;;;4972102;28;19926;-80
2023/10/07 17:32:08;;;;;;;;;;;;;;;;;;4972079;28;19928;-81
2023/10/07 17:34:34;;;;;;;;;;;;;;;;;;4953777;28;19925;-80
2023/10/07 17:37:00;;;;;;;;;;;;;;;;;;4955600;28;19947;-79
2023/10/07 17:39:26;;;;;;;;;;;;;;;;;;4975667;28;19973;-81
2023/10/07 17:41:52;;;;;;;;;;;;;;;;;;4954587;28;20420;-82
2023/10/07 17:44:18;;;;;;;;;;;;;;;;;;4973029;28;19933;-82
2023/10/07 17:46:44;;;;;;;;;;;;;;;;;;4954606;28;20352;-79
2023/10/07 17:49:10;;;;;;;;;;;;;;;;;;4952280;28;20385;-82
2023/10/07 17:51:37;;;;;;;;;;;;;;;;;;4956993;28;19926;-84
2023/10/07 17:54:04;;;;;;;;;;;;;;;;;;4972000;28;19929;-82
2023/10/07 17:56:30;;;;;;;;;;;;;;;;;;4973376;28;19965;-79
2023/10/07 17:58:56;;;;;;;;;;;;;;;;;;4973437;28;19921;-79
2023/10/07 18:01:22;;;;;;;;;;;;;;;;;;4954878;28;20456;-82
2023/10/07 18:03:48;;;;;;;;;;;;;;;;;;4955057;28;20500;-79
2023/10/07 18:06:13;;;;;;;;;;;;;;;;;;4976842;28;19925;-83
2023/10/07 18:08:43;;;;;;;;;;;;;;;;;;4972910;28;19933;-80
2023/10/07 18:11:09;;;;;;;;;;;;;;;;;;4972174;28;20366;-83
2023/10/07 18:13:35;;;;;;;;;;;;;;;;;;4972267;28;20008;-82
2023/10/07 18:16:01;;;;;;;;;;;;;;;;;;4955041;28;19926;-80
2023/10/07 18:18:27;;;;;;;;;;;;;;;;;;4974363;28;20385;-82
2023/10/07 18:20:54;;;;;;;;;;;;;;;;;;4957001;28;20405;-81
2023/10/07 18:23:19;;;;;;;;;;;;;;;;;;4957938;28;19922;-79
2023/10/07 18:25:45;;;;;;;;;;;;;;;;;;4959856;28;19926;-83
2023/10/07 18:28:11;;;;;;;;;;;;;;;;;;4973883;28;19932;-79
2023/10/07 18:30:37;;;;;;;;;;;;;;;;;;4959157;28;20582;-81
2023/10/07 18:33:05;;;;;;;;;;;;;;;;;;4955170;28;21018;-81
2023/10/07 18:35:31;;;;;;;;;;;;;;;;;;4977435;28;20523;-80
2023/10/07 18:37:57;;;;;;;;;;;;;;;;;;4977494;28;19933;-82
2023/10/07 18:40:23;;;;;;;;;;;;;;;;;;4975826;28;19926;-82
2023/10/07 18:42:50;;;;;;;;;;;;;;;;;;4976815;28;20085;-81
2023/10/07 18:45:16;;;;;;;;;;;;;;;;;;4974148;28;19946;-80
2023/10/07 18:47:42;;;;;;;;;;;;;;;;;;4957435;28;20268;-81
2023/10/07 18:50:07;;;;;;;;;;;;;;;;;;4959310;28;19947;-83
2023/10/07 18:52:33;;;;;;;;;;;;;;;;;;4957193;28;19925;-83
2023/10/07 18:55:00;;;;;;;;;;;;;;;;;;4956137;28;19968;-81
2023/10/07 18:57:26;;;;;;;;;;;;;;;;;;4957009;28;19969;-81
2023/10/07 18:59:52;;;;;;;;;;;;;;;;;;4974238;28;19929;-83
2023/10/07 19:02:21;;;;;;;;;;;;;;;;;;4975413;28;19972;-82
2023/10/07 19:04:47;;;;;;;;;;;;;;;;;;4956041;28;20094;-80
2023/10/07 19:07:13;;;;;;;;;;;;;;;;;;4971422;28;19925;-81
2023/10/07 19:09:40;;;;;;;;;;;;;;;;;;4973063;28;19925;-83
2023/10/07 19:12:06;;;;;;;;;;;;;;;;;;4975321;28;20385;-80
2023/10/07 19:14:32;;;;;;;;;;;;;;;;;;4957232;28;19929;-82